createdAt,value
2018-02-18T00:00:15.093Z,4.10
2018-02-18T00:02:42.494Z,4.09
2018-02-18T00:05:09.890Z,3.95
2018-02-18T00:07:37.336Z,3.75
2018-02-18T00:10:04.739Z,3.78
2018-02-18T00:12:32.127Z,3.75
2018-02-18T00:15:11.290Z,3.64
2018-02-18T00:17:38.684Z,3.71
2018-02-18T00:20:06.135Z,3.69
2018-02-18T00:22:33.543Z,3.61
2018-02-18T00:25:00.935Z,3.39
2018-02-18T00:27:28.315Z,3.45
2018-02-18T00:29:55.723Z,3.43
2018-02-18T00:32:23.112Z,3.29
2018-02-18T00:34:50.514Z,3.07
2018-02-18T00:37:17.907Z,3.11
2018-02-18T00:39:45.314Z,3.12
2018-02-18T00:42:12.710Z,3.07
2018-02-18T00:44:40.555Z,3.01
2018-02-18T00:47:07.947Z,2.88
2018-02-18T00:49:35.345Z,2.88
2018-02-18T00:52:02.736Z,2.80
2018-02-18T00:54:30.130Z,2.74
2018-02-18T00:56:57.524Z,2.64
2018-02-18T00:59:24.905Z,2.58
2018-02-18T01:01:52.299Z,2.53
2018-02-18T01:04:19.698Z,2.51
2018-02-18T01:06:47.087Z,2.47
2018-02-18T01:09:14.511Z,2.47
2018-02-18T01:11:41.925Z,2.38
2018-02-18T01:14:09.422Z,2.33
2018-02-18T01:16:36.831Z,2.16
2018-02-18T01:19:04.233Z,2.17
2018-02-18T01:21:31.618Z,2.14
2018-02-18T01:23:59.016Z,2.12
2018-02-18T01:26:26.421Z,2.11
2018-02-18T01:28:53.815Z,2.05
2018-02-18T01:31:21.215Z,2.02
2018-02-18T01:33:48.658Z,1.97
2018-02-18T01:36:16.046Z,1.91
2018-02-18T01:38:43.430Z,1.87
2018-02-18T01:41:10.832Z,1.72
2018-02-18T01:43:38.275Z,1.71
2018-02-18T01:46:05.700Z,1.65
2018-02-18T01:48:33.153Z,1.18
2018-02-18T01:51:00.498Z,1.00
2018-02-18T01:53:27.892Z,1.19
2018-02-18T01:55:55.298Z,1.31
2018-02-18T01:58:22.691Z,1.33
2018-02-18T02:00:50.167Z,1.34
2018-02-18T02:03:17.622Z,1.33
2018-02-18T02:05:45.027Z,1.33
2018-02-18T02:08:12.406Z,1.31
2018-02-18T02:10:39.802Z,1.24
2018-02-18T02:13:07.191Z,1.23
2018-02-18T02:15:34.586Z,1.20
2018-02-18T02:18:01.980Z,1.21
2018-02-18T02:20:29.379Z,1.16
2018-02-18T02:22:56.771Z,1.14
2018-02-18T02:25:24.233Z,1.15
2018-02-18T02:27:51.608Z,1.11
2018-02-18T02:30:18.999Z,1.11
2018-02-18T02:32:46.390Z,1.03
2018-02-18T02:35:13.786Z,0.97
2018-02-18T02:37:41.197Z,0.95
2018-02-18T02:40:08.659Z,0.92
2018-02-18T02:42:36.045Z,0.86
2018-02-18T02:45:03.443Z,0.83
2018-02-18T02:47:30.837Z,0.80
2018-02-18T02:49:58.231Z,0.75
2018-02-18T02:52:25.622Z,0.72
2018-02-18T02:54:53.048Z,0.73
2018-02-18T02:57:20.543Z,0.71
2018-02-18T02:59:47.998Z,0.68
2018-02-18T03:02:15.447Z,0.68
2018-02-18T03:04:42.913Z,0.69
2018-02-18T03:07:10.304Z,0.64
2018-02-18T03:09:37.690Z,0.65
2018-02-18T03:12:05.088Z,0.61
2018-02-18T03:14:32.474Z,0.56
2018-02-18T03:16:59.875Z,0.56
2018-02-18T03:19:27.366Z,0.52
2018-02-18T03:21:54.759Z,0.51
2018-02-18T03:24:22.161Z,0.48
2018-02-18T03:26:49.565Z,0.47
2018-02-18T03:29:16.951Z,0.43
2018-02-18T03:31:44.344Z,0.42
2018-02-18T03:34:11.726Z,0.38
2018-02-18T03:36:39.144Z,0.36
2018-02-18T03:39:06.534Z,0.36
2018-02-18T03:41:33.962Z,0.33
2018-02-18T03:44:01.352Z,0.34
2018-02-18T03:46:28.738Z,0.32
2018-02-18T03:48:56.226Z,0.27
2018-02-18T03:51:23.990Z,0.23
2018-02-18T03:53:51.431Z,0.22
2018-02-18T03:56:18.827Z,0.17
2018-02-18T03:58:46.263Z,0.18
2018-02-18T04:01:13.719Z,0.13
2018-02-18T04:03:41.115Z,0.03
2018-02-18T04:06:08.503Z,0.05
2018-02-18T04:08:35.987Z,0.02
2018-02-18T04:11:03.382Z,0.00
2018-02-18T04:13:30.771Z,-0.07
2018-02-18T04:15:58.252Z,-0.08
2018-02-18T04:18:25.701Z,-0.11
2018-02-18T04:20:53.086Z,-0.12
2018-02-18T04:23:20.511Z,-0.13
2018-02-18T04:25:47.966Z,-0.26
2018-02-18T04:28:15.422Z,-0.25
2018-02-18T04:30:42.831Z,-0.23
2018-02-18T04:33:10.218Z,-0.24
2018-02-18T04:35:37.686Z,-0.28
2018-02-18T04:38:05.076Z,-0.21
2018-02-18T04:40:32.516Z,-0.20
2018-02-18T04:42:59.988Z,-0.25
2018-02-18T04:45:27.439Z,-0.24
2018-02-18T04:47:54.834Z,-0.22
2018-02-18T04:50:22.227Z,-0.29
2018-02-18T04:52:49.705Z,-0.25
2018-02-18T04:55:17.102Z,-0.28
2018-02-18T04:57:44.519Z,-0.32
2018-02-18T05:00:11.974Z,-0.36
2018-02-18T05:02:39.439Z,-0.37
2018-02-18T05:05:06.829Z,-0.39
2018-02-18T05:07:34.221Z,-0.36
2018-02-18T05:10:01.617Z,-0.40
2018-02-18T05:12:29.019Z,-0.41
2018-02-18T05:14:56.462Z,-0.45
2018-02-18T05:17:23.914Z,-0.52
2018-02-18T05:19:51.372Z,-0.45
2018-02-18T05:22:18.774Z,-0.43
2018-02-18T05:24:46.166Z,-0.40
2018-02-18T05:27:14.461Z,-0.42
2018-02-18T05:29:42.739Z,-0.43
2018-02-18T05:32:10.196Z,-0.48
2018-02-18T05:34:37.586Z,-0.49
2018-02-18T05:37:04.996Z,-0.51
2018-02-18T05:39:32.378Z,-0.53
2018-02-18T05:42:00.214Z,-0.62
2018-02-18T05:44:27.604Z,-0.69
2018-02-18T05:46:55.025Z,-0.73
2018-02-18T05:49:22.478Z,-0.75
2018-02-18T05:51:49.872Z,-0.71
2018-02-18T05:54:17.277Z,-0.73
2018-02-18T05:56:44.679Z,-0.73
2018-02-18T05:59:12.075Z,-0.73
2018-02-18T06:01:39.555Z,-0.75
2018-02-18T06:04:06.951Z,-0.74
2018-02-18T06:06:34.386Z,-0.71
2018-02-18T06:09:01.762Z,-0.72
2018-02-18T06:11:29.179Z,-0.72
2018-02-18T06:13:56.655Z,-0.72
2018-02-18T06:16:24.054Z,-0.72
2018-02-18T06:18:51.439Z,-0.75
2018-02-18T06:21:18.838Z,-0.83
2018-02-18T06:23:47.227Z,-0.85
2018-02-18T06:26:14.631Z,-0.83
2018-02-18T06:28:42.021Z,-0.83
2018-02-18T06:31:09.452Z,-0.84
2018-02-18T06:33:36.902Z,-0.84
2018-02-18T06:36:04.350Z,-0.84
2018-02-18T06:38:31.747Z,-0.83
2018-02-18T06:40:59.264Z,-0.82
2018-02-18T06:43:26.658Z,-0.92
2018-02-18T06:45:54.047Z,-0.85
2018-02-18T06:48:21.453Z,-0.82
2018-02-18T06:50:48.861Z,-0.72
2018-02-18T06:53:16.320Z,-0.65
2018-02-18T06:55:43.718Z,-0.56
2018-02-18T06:58:11.111Z,-0.50
2018-02-18T07:00:38.512Z,-0.43
2018-02-18T07:03:05.902Z,-0.37
2018-02-18T07:05:33.306Z,-0.28
2018-02-18T07:08:00.710Z,-0.19
2018-02-18T07:10:28.110Z,-0.13
2018-02-18T07:12:55.507Z,-0.01
2018-02-18T07:15:23.107Z,0.36
2018-02-18T07:17:50.502Z,1.05
2018-02-18T07:20:17.947Z,1.94
2018-02-18T07:22:46.215Z,2.91
2018-02-18T07:25:13.623Z,3.91
2018-02-18T07:27:40.991Z,4.92
2018-02-18T07:30:08.486Z,6.00
2018-02-18T07:32:35.874Z,7.10
2018-02-18T07:35:03.273Z,8.19
2018-02-18T07:37:30.662Z,9.26
2018-02-18T07:39:58.159Z,10.19
2018-02-18T07:42:25.607Z,11.00
2018-02-18T07:44:53.067Z,11.90
2018-02-18T07:47:20.470Z,12.82
2018-02-18T07:49:47.891Z,13.69
2018-02-18T07:52:15.275Z,14.54
2018-02-18T07:54:42.668Z,15.23
2018-02-18T07:57:10.062Z,15.90
2018-02-18T07:59:37.509Z,16.31
2018-02-18T08:02:04.954Z,16.76
2018-02-18T08:04:32.424Z,16.50
2018-02-18T08:06:59.806Z,16.94
2018-02-18T08:09:27.220Z,16.13
2018-02-18T08:11:54.628Z,15.75
2018-02-18T08:14:22.019Z,15.22
2018-02-18T08:16:49.416Z,14.51
2018-02-18T08:19:16.814Z,14.36
2018-02-18T08:21:44.308Z,14.10
2018-02-18T08:24:11.750Z,13.94
2018-02-18T08:26:39.208Z,14.21
2018-02-18T08:29:06.602Z,14.22
2018-02-18T08:31:34.022Z,14.12
2018-02-18T08:34:01.419Z,13.96
2018-02-18T08:36:28.815Z,14.35
2018-02-18T08:38:56.207Z,15.10
2018-02-18T08:41:23.643Z,15.78
2018-02-18T08:43:51.035Z,15.89
2018-02-18T08:46:18.455Z,16.11
2018-02-18T08:48:45.843Z,16.23
2018-02-18T08:51:13.262Z,15.80
2018-02-18T08:53:40.718Z,15.79
2018-02-18T08:56:08.158Z,15.66
2018-02-18T08:58:35.511Z,15.65
2018-02-18T09:01:02.917Z,16.08
2018-02-18T09:03:30.344Z,15.31
2018-02-18T09:05:57.725Z,15.36
2018-02-18T09:08:25.118Z,15.46
2018-02-18T09:10:52.503Z,15.37
2018-02-18T09:13:19.894Z,15.39
2018-02-18T09:15:47.315Z,15.44
2018-02-18T09:18:14.775Z,13.94
2018-02-18T09:20:42.227Z,12.45
2018-02-18T09:23:09.623Z,11.99
2018-02-18T09:25:37.018Z,11.97
2018-02-18T09:28:04.419Z,11.61
2018-02-18T09:30:31.799Z,12.28
2018-02-18T09:32:59.306Z,12.59
2018-02-18T09:35:26.715Z,13.55
2018-02-18T09:37:54.106Z,14.43
2018-02-18T09:40:21.492Z,14.24
2018-02-18T09:42:48.903Z,13.77
2018-02-18T09:45:16.294Z,13.95
2018-02-18T09:47:43.678Z,14.38
2018-02-18T09:50:11.100Z,14.67
2018-02-18T09:52:38.474Z,14.94
2018-02-18T09:55:05.907Z,15.54
2018-02-18T09:57:33.368Z,16.11
2018-02-18T10:00:00.760Z,16.37
2018-02-18T10:02:28.146Z,15.64
2018-02-18T10:04:55.546Z,15.32
2018-02-18T10:07:22.934Z,15.14
2018-02-18T10:09:50.333Z,14.86
2018-02-18T10:12:17.723Z,14.29
2018-02-18T10:14:45.428Z,14.05
2018-02-18T10:17:12.936Z,13.77
2018-02-18T10:19:40.319Z,14.39
2018-02-18T10:22:07.755Z,14.15
2018-02-18T10:24:35.142Z,13.80
2018-02-18T10:27:02.535Z,14.00
2018-02-18T10:29:29.931Z,13.22
2018-02-18T10:31:57.339Z,12.99
2018-02-18T10:34:24.726Z,12.46
2018-02-18T10:36:52.165Z,12.03
2018-02-18T10:39:19.530Z,11.80
2018-02-18T10:41:46.919Z,12.08
2018-02-18T10:44:15.151Z,12.43
2018-02-18T10:46:42.611Z,12.55
2018-02-18T10:49:10.070Z,12.63
2018-02-18T10:51:37.452Z,13.05
2018-02-18T10:54:04.839Z,12.95
2018-02-18T10:56:32.327Z,13.36
2018-02-18T10:58:59.718Z,13.18
2018-02-18T11:01:27.115Z,12.66
2018-02-18T11:03:54.604Z,12.05
2018-02-18T11:06:22.000Z,11.70
2018-02-18T11:08:49.391Z,11.48
2018-02-18T11:11:16.778Z,11.01
2018-02-18T11:13:44.171Z,10.91
2018-02-18T11:16:11.571Z,10.64
2018-02-18T11:18:39.040Z,10.58
2018-02-18T11:21:06.444Z,10.05
2018-02-18T11:23:33.834Z,9.76
2018-02-18T11:26:01.310Z,9.93
2018-02-18T11:28:28.710Z,9.98
2018-02-18T11:30:56.096Z,9.62
2018-02-18T11:33:23.507Z,9.64
2018-02-18T11:35:50.910Z,9.74
2018-02-18T11:38:18.291Z,9.95
2018-02-18T11:40:45.682Z,9.51
2018-02-18T11:43:13.073Z,9.71
2018-02-18T11:45:40.458Z,9.72
2018-02-18T11:48:07.847Z,9.51
2018-02-18T11:50:35.330Z,9.37
2018-02-18T11:53:02.723Z,9.13
2018-02-18T11:55:30.148Z,9.10
2018-02-18T11:57:57.536Z,9.07
2018-02-18T12:00:24.952Z,9.09
2018-02-18T12:02:52.365Z,8.99
2018-02-18T12:05:19.774Z,8.60
2018-02-18T12:07:47.176Z,8.70
2018-02-18T12:10:14.558Z,8.92
2018-02-18T12:12:41.967Z,9.23
2018-02-18T12:15:09.351Z,9.35
2018-02-18T12:17:36.747Z,9.37
2018-02-18T12:20:04.196Z,9.24
2018-02-18T12:22:31.674Z,9.35
2018-02-18T12:24:59.055Z,9.45
2018-02-18T12:27:26.450Z,9.70
2018-02-18T12:29:53.911Z,9.61
2018-02-18T12:32:21.318Z,9.59
2018-02-18T12:34:48.699Z,9.51
2018-02-18T12:37:16.096Z,9.54
2018-02-18T12:39:43.491Z,9.77
2018-02-18T12:42:10.887Z,9.89
2018-02-18T12:44:38.310Z,10.04
2018-02-18T12:47:05.687Z,10.14
2018-02-18T12:49:33.171Z,10.16
2018-02-18T12:52:00.623Z,10.05
2018-02-18T12:54:28.007Z,9.86
2018-02-18T12:56:55.435Z,9.69
2018-02-18T12:59:22.818Z,9.56
2018-02-18T13:01:50.209Z,9.42
2018-02-18T13:04:17.596Z,9.09
2018-02-18T13:06:45.046Z,9.08
2018-02-18T13:09:12.442Z,9.04
2018-02-18T13:11:39.852Z,9.02
2018-02-18T13:14:07.234Z,8.92
2018-02-18T13:16:34.610Z,8.61
2018-02-18T13:19:02.003Z,8.66
2018-02-18T13:21:29.391Z,8.69
2018-02-18T13:23:56.791Z,8.91
2018-02-18T13:26:24.194Z,8.91
2018-02-18T13:28:51.674Z,9.03
2018-02-18T13:31:19.050Z,8.95
2018-02-18T13:33:46.451Z,8.90
2018-02-18T13:36:13.943Z,9.20
2018-02-18T13:38:41.339Z,9.32
2018-02-18T13:41:08.741Z,9.41
2018-02-18T13:43:36.198Z,8.93
2018-02-18T13:46:03.586Z,9.03
2018-02-18T13:48:30.974Z,8.65
2018-02-18T13:50:58.463Z,8.67
2018-02-18T13:53:25.875Z,8.86
2018-02-18T13:55:53.294Z,8.62
2018-02-18T13:58:20.707Z,8.29
2018-02-18T14:00:48.102Z,8.35
2018-02-18T14:03:15.539Z,8.65
2018-02-18T14:05:42.922Z,8.45
2018-02-18T14:08:10.327Z,8.41
2018-02-18T14:10:37.714Z,8.29
2018-02-18T14:13:05.099Z,8.16
2018-02-18T14:15:32.494Z,8.43
2018-02-18T14:18:00.051Z,8.42
2018-02-18T14:20:27.564Z,8.10
2018-02-18T14:22:54.950Z,8.18
2018-02-18T14:25:22.432Z,8.30
2018-02-18T14:27:49.810Z,8.46
2018-02-18T14:30:17.267Z,8.72
2018-02-18T14:32:44.723Z,8.96
2018-02-18T14:35:12.147Z,8.97
2018-02-18T14:37:39.531Z,8.56
2018-02-18T14:40:06.922Z,8.71
2018-02-18T14:42:46.018Z,8.66
2018-02-18T14:45:25.458Z,8.22
2018-02-18T14:51:04.512Z,8.24
2018-02-18T14:53:43.755Z,8.27
2018-02-18T14:56:19.883Z,8.61
2018-02-18T14:58:47.272Z,8.62
2018-02-18T15:01:14.671Z,8.55
2018-02-18T15:03:42.058Z,8.60
2018-02-18T15:06:09.452Z,8.59
2018-02-18T15:08:36.863Z,8.51
2018-02-18T15:11:04.270Z,8.50
2018-02-18T15:13:31.690Z,8.49
2018-02-18T15:15:59.106Z,8.51
2018-02-18T15:18:26.488Z,8.48
2018-02-18T15:20:53.887Z,8.46
2018-02-18T15:23:21.295Z,8.28
2018-02-18T15:25:48.747Z,8.47
2018-02-18T15:28:16.315Z,8.49
2018-02-18T15:30:43.779Z,8.21
2018-02-18T15:33:11.166Z,8.39
2018-02-18T15:35:38.571Z,8.20
2018-02-18T15:38:05.964Z,8.23
2018-02-18T15:40:33.395Z,8.17
2018-02-18T15:43:00.871Z,8.35
2018-02-18T15:45:28.328Z,8.26
2018-02-18T15:47:55.747Z,8.17
2018-02-18T15:50:23.136Z,7.54
2018-02-18T15:52:50.594Z,7.59
2018-02-18T15:55:17.984Z,7.67
2018-02-18T15:57:45.383Z,7.56
2018-02-18T16:00:12.790Z,7.51
2018-02-18T16:02:40.213Z,7.41
2018-02-18T16:05:07.599Z,7.59
2018-02-18T16:07:35.002Z,7.52
2018-02-18T16:10:02.483Z,7.71
2018-02-18T16:12:29.883Z,7.62
2018-02-18T16:14:57.295Z,7.43
2018-02-18T16:17:24.687Z,7.44
2018-02-18T16:19:52.091Z,7.44
2018-02-18T16:22:19.563Z,7.13
2018-02-18T16:24:47.019Z,7.10
2018-02-18T16:27:14.427Z,7.04
2018-02-18T16:29:41.919Z,6.96
2018-02-18T16:32:09.394Z,6.96
2018-02-18T16:34:36.847Z,7.09
2018-02-18T16:37:04.242Z,7.30
2018-02-18T16:39:31.643Z,7.37
2018-02-18T16:41:59.042Z,7.32
2018-02-18T16:44:26.442Z,7.22
2018-02-18T16:46:53.831Z,7.05
2018-02-18T16:49:21.218Z,7.09
2018-02-18T16:51:48.635Z,7.01
2018-02-18T16:54:16.022Z,6.90
2018-02-18T16:56:43.443Z,6.77
2018-02-18T16:59:10.900Z,6.68
2018-02-18T17:01:38.299Z,6.71
2018-02-18T17:04:05.691Z,6.66
2018-02-18T17:06:33.106Z,6.59
2018-02-18T17:09:00.493Z,6.67
2018-02-18T17:11:27.910Z,6.66
2018-02-18T17:13:55.294Z,6.61
2018-02-18T17:16:22.791Z,6.55
2018-02-18T17:18:50.247Z,6.39
2018-02-18T17:21:17.637Z,6.50
2018-02-18T17:23:45.075Z,6.50
2018-02-18T17:26:12.496Z,6.47
2018-02-18T17:28:39.876Z,6.45
2018-02-18T17:31:07.282Z,6.23
2018-02-18T17:33:34.673Z,6.24
2018-02-18T17:36:02.089Z,6.22
2018-02-18T17:38:29.586Z,6.25
2018-02-18T17:40:56.994Z,6.24
2018-02-18T17:43:24.402Z,6.16
2018-02-18T17:45:51.974Z,6.16
2018-02-18T17:48:19.383Z,5.99
2018-02-18T17:50:46.784Z,5.98
2018-02-18T17:53:14.193Z,5.99
2018-02-18T17:55:41.631Z,5.94
2018-02-18T17:58:11.086Z,5.91
2018-02-18T18:00:38.473Z,5.91
2018-02-18T18:03:05.877Z,5.82
2018-02-18T18:05:33.319Z,5.80
2018-02-18T18:08:00.759Z,5.75
2018-02-18T18:10:28.150Z,5.74
2018-02-18T18:12:55.575Z,5.68
2018-02-18T18:15:23.081Z,5.60
2018-02-18T18:17:50.503Z,5.54
2018-02-18T18:20:17.897Z,5.50
2018-02-18T18:22:45.294Z,5.43
2018-02-18T18:25:12.686Z,5.26
2018-02-18T18:27:40.083Z,5.20
2018-02-18T18:30:07.507Z,5.19
2018-02-18T18:32:34.898Z,5.11
2018-02-18T18:35:02.405Z,5.01
2018-02-18T18:37:29.871Z,4.88
2018-02-18T18:39:57.328Z,4.83
2018-02-18T18:42:24.785Z,4.76
2018-02-18T18:44:52.166Z,4.69
2018-02-18T18:47:19.594Z,4.49
2018-02-18T18:49:47.085Z,4.42
2018-02-18T18:52:14.460Z,4.32
2018-02-18T18:54:41.855Z,4.16
2018-02-18T18:57:09.327Z,3.98
2018-02-18T18:59:36.723Z,3.87
2018-02-18T19:02:04.239Z,3.79
2018-02-18T19:04:31.703Z,3.83
2018-02-18T19:06:59.107Z,3.87
2018-02-18T19:09:26.491Z,3.82
2018-02-18T19:11:53.886Z,3.77
2018-02-18T19:14:21.289Z,3.74
2018-02-18T19:16:48.683Z,3.55
2018-02-18T19:19:16.066Z,3.49
2018-02-18T19:21:43.471Z,3.60
2018-02-18T19:24:10.871Z,3.53
2018-02-18T19:26:38.275Z,3.44
2018-02-18T19:29:05.674Z,3.50
2018-02-18T19:31:33.068Z,3.42
2018-02-18T19:34:00.471Z,3.43
2018-02-18T19:36:27.895Z,3.48
2018-02-18T19:38:55.302Z,3.42
2018-02-18T19:41:22.695Z,3.23
2018-02-18T19:43:50.343Z,3.20
2018-02-18T19:46:17.731Z,3.17
2018-02-18T19:48:45.180Z,3.33
2018-02-18T19:51:12.575Z,3.25
2018-02-18T19:53:39.989Z,3.38
2018-02-18T19:56:07.447Z,3.33
2018-02-18T19:58:34.846Z,3.46
2018-02-18T20:01:02.273Z,3.49
2018-02-18T20:03:29.656Z,3.50
2018-02-18T20:05:57.043Z,3.36
2018-02-18T20:08:24.443Z,3.42
2018-02-18T20:10:51.831Z,3.41
2018-02-18T20:13:20.814Z,3.48
2018-02-18T20:15:48.184Z,3.45
2018-02-18T20:18:15.575Z,3.57
2018-02-18T20:20:42.966Z,3.56
2018-02-18T20:23:10.443Z,3.68
2018-02-18T20:25:37.830Z,3.85
2018-02-18T20:28:05.224Z,3.77
2018-02-18T20:30:32.703Z,3.96
2018-02-18T20:33:00.105Z,4.06
2018-02-18T20:35:27.483Z,4.06
2018-02-18T20:37:54.974Z,4.16
2018-02-18T20:40:22.435Z,4.12
2018-02-18T20:42:49.843Z,4.10
2018-02-18T20:45:17.343Z,4.19
2018-02-18T20:47:44.730Z,4.15
2018-02-18T20:50:12.151Z,4.05
2018-02-18T20:52:39.623Z,4.17
2018-02-18T20:55:07.063Z,4.21
2018-02-18T20:57:34.459Z,4.27
2018-02-18T21:00:01.858Z,4.22
2018-02-18T21:02:29.264Z,4.08
2018-02-18T21:04:56.698Z,4.08
2018-02-18T21:07:24.098Z,4.12
2018-02-18T21:09:51.507Z,4.23
2018-02-18T21:12:18.970Z,4.32
2018-02-18T21:14:47.058Z,4.29
2018-02-18T21:17:14.479Z,4.42
2018-02-18T21:19:41.875Z,4.46
2018-02-18T21:22:09.269Z,4.52
2018-02-18T21:24:36.759Z,4.37
2018-02-18T21:27:04.163Z,4.49
2018-02-18T21:29:31.661Z,4.50
2018-02-18T21:31:59.072Z,4.49
2018-02-18T21:34:26.458Z,4.52
2018-02-18T21:36:53.862Z,4.53
2018-02-18T21:39:21.244Z,4.49
2018-02-18T21:41:48.659Z,4.54
2018-02-18T21:44:16.059Z,4.61
2018-02-18T21:46:43.466Z,4.59
2018-02-18T21:49:10.935Z,4.49
2018-02-18T21:51:38.366Z,4.33
2018-02-18T21:54:05.746Z,4.20
2018-02-18T21:56:33.159Z,4.03
2018-02-18T21:59:00.647Z,4.00
2018-02-18T22:01:28.102Z,3.78
2018-02-18T22:03:55.562Z,3.58
2018-02-18T22:06:22.961Z,3.44
2018-02-18T22:08:50.346Z,3.45
2018-02-18T22:11:17.760Z,3.25
2018-02-18T22:13:45.155Z,3.36
2018-02-18T22:16:12.644Z,3.21
2018-02-18T22:18:40.043Z,3.16
2018-02-18T22:21:07.438Z,3.09
2018-02-18T22:23:34.839Z,2.99
2018-02-18T22:26:02.231Z,3.07
2018-02-18T22:28:29.662Z,3.12
2018-02-18T22:30:57.072Z,3.21
2018-02-18T22:33:24.582Z,3.33
2018-02-18T22:35:52.030Z,3.34
2018-02-18T22:38:19.431Z,3.39
2018-02-18T22:40:46.834Z,3.31
2018-02-18T22:43:14.230Z,3.35
2018-02-18T22:45:42.063Z,3.38
2018-02-18T22:48:09.471Z,3.42
2018-02-18T22:50:37.006Z,3.33
2018-02-18T22:53:04.399Z,3.34
2018-02-18T22:55:31.804Z,3.37
2018-02-18T22:57:59.195Z,3.47
2018-02-18T23:00:26.594Z,3.33
2018-02-18T23:02:54.015Z,3.38
2018-02-18T23:05:27.131Z,3.39
2018-02-18T23:07:54.609Z,3.38
2018-02-18T23:10:22.047Z,3.42
2018-02-18T23:12:49.442Z,3.50
2018-02-18T23:15:16.872Z,3.48
2018-02-18T23:17:44.333Z,3.53
2018-02-18T23:20:11.718Z,3.62
2018-02-18T23:22:39.108Z,3.65
2018-02-18T23:25:06.502Z,3.72
2018-02-18T23:27:33.908Z,3.76
2018-02-18T23:30:01.304Z,3.74
2018-02-18T23:32:28.699Z,3.69
2018-02-18T23:34:56.099Z,3.67
2018-02-18T23:37:23.499Z,3.68
2018-02-18T23:39:50.895Z,3.67
2018-02-18T23:42:18.286Z,3.69
2018-02-18T23:44:45.688Z,3.53
2018-02-18T23:47:13.075Z,3.50
2018-02-18T23:49:40.484Z,3.45
2018-02-18T23:52:07.993Z,3.41
2018-02-18T23:54:35.405Z,3.34
2018-02-18T23:57:02.819Z,3.18
2018-02-18T23:59:30.214Z,3.20
